createdAt,value
2023-03-06T00:02:00.797Z,2.80
2023-03-06T00:05:04.808Z,3.33
2023-03-06T00:08:09.993Z,12.13
2023-03-06T00:11:16.354Z,3.57
2023-03-06T00:14:20.509Z,2.90
2023-03-06T00:17:23.684Z,3.30
2023-03-06T00:20:27.918Z,2.67
2023-03-06T00:23:30.921Z,3.08
2023-03-06T00:26:37.024Z,2.80
2023-03-06T00:29:40.714Z,2.75
2023-03-06T00:32:44.539Z,3.80
2023-03-06T00:35:48.292Z,3.47
2023-03-06T00:38:52.087Z,3.58
2023-03-06T00:41:56.098Z,3.73
2023-03-06T00:45:01.544Z,3.15
2023-03-06T00:48:05.687Z,3.25
2023-03-06T00:51:09.145Z,4.15
2023-03-06T00:54:12.742Z,3.30
2023-03-06T00:57:17.177Z,4.13
2023-03-06T01:00:20.593Z,4.13
2023-03-06T01:03:25.988Z,3.83
2023-03-06T01:06:29.317Z,3.05
2023-03-06T01:09:33.545Z,3.70
2023-03-06T01:12:36.481Z,3.27
2023-03-06T01:15:40.748Z,3.03
2023-03-06T01:18:43.902Z,3.45
2023-03-06T01:21:47.520Z,3.25
2023-03-06T01:24:50.575Z,1.52
2023-03-06T01:27:54.166Z,2.70
2023-03-06T01:30:58.274Z,2.42
2023-03-06T01:34:01.983Z,2.28
2023-03-06T01:37:05.178Z,1.17
2023-03-06T01:40:09.901Z,1.20
2023-03-06T01:43:34.548Z,0.73
2023-03-06T01:46:44.804Z,0.90
2023-03-06T01:49:48.492Z,1.10
2023-03-06T01:52:57.212Z,0.80
2023-03-06T01:56:00.992Z,0.75
2023-03-06T01:59:05.077Z,0.70
2023-03-06T02:02:11.359Z,1.40
2023-03-06T02:05:15.789Z,1.20
2023-03-06T02:08:20.942Z,1.33
2023-03-06T02:11:26.116Z,1.50
2023-03-06T02:14:30.207Z,1.63
2023-03-06T02:17:36.636Z,1.45
2023-03-06T02:20:51.621Z,1.40
2023-03-06T02:24:14.785Z,1.70
2023-03-06T02:27:18.423Z,1.30
2023-03-06T02:30:23.557Z,1.30
2023-03-06T02:33:29.715Z,1.50
2023-03-06T02:36:37.660Z,2.40
2023-03-06T02:39:49.065Z,1.00
2023-03-06T02:42:58.442Z,1.25
2023-03-06T02:46:02.146Z,1.60
2023-03-06T02:49:05.546Z,1.20
2023-03-06T02:52:08.938Z,1.10
2023-03-06T02:55:15.717Z,1.10
2023-03-06T02:58:22.011Z,3.05
2023-03-06T03:01:25.471Z,1.17
2023-03-06T03:04:29.412Z,1.48
2023-03-06T03:07:34.132Z,1.65
2023-03-06T03:10:37.889Z,2.13
2023-03-06T03:13:42.693Z,1.90
2023-03-06T03:16:50.466Z,1.80
2023-03-06T03:19:54.730Z,1.90
2023-03-06T03:22:58.716Z,1.20
2023-03-06T03:26:11.670Z,1.50
2023-03-06T03:29:18.685Z,1.88
2023-03-06T03:32:22.220Z,2.23
2023-03-06T03:35:26.287Z,1.80
2023-03-06T03:38:30.772Z,1.52
2023-03-06T03:41:34.611Z,1.30
2023-03-06T03:44:42.020Z,2.10
2023-03-06T03:47:46.154Z,1.60
2023-03-06T03:50:50.266Z,2.30
2023-03-06T03:53:57.353Z,1.70
2023-03-06T03:57:04.698Z,2.40
2023-03-06T04:00:16.684Z,1.33
2023-03-06T04:03:35.930Z,1.70
2023-03-06T04:06:41.901Z,1.88
2023-03-06T04:09:45.940Z,2.75
2023-03-06T04:12:49.221Z,2.70
2023-03-06T04:15:56.799Z,3.10
2023-03-06T04:19:00.800Z,2.33
2023-03-06T04:22:05.103Z,2.45
2023-03-06T04:25:11.468Z,1.75
2023-03-06T04:28:16.051Z,5.07
2023-03-06T04:31:20.738Z,2.67
2023-03-06T04:34:24.055Z,2.00
2023-03-06T04:37:28.168Z,1.92
2023-03-06T04:40:36.347Z,1.38
2023-03-06T04:43:40.134Z,1.13
2023-03-06T04:46:43.450Z,0.90
2023-03-06T04:49:47.435Z,1.07
2023-03-06T04:52:50.936Z,2.10
2023-03-06T04:55:55.157Z,1.65
2023-03-06T04:58:59.541Z,2.40
2023-03-06T05:02:02.512Z,2.17
2023-03-06T05:05:06.529Z,1.77
2023-03-06T05:08:15.797Z,1.55
2023-03-06T05:11:20.011Z,1.27
2023-03-06T05:14:24.049Z,1.20
2023-03-06T05:17:27.804Z,0.90
2023-03-06T05:20:31.571Z,1.10
2023-03-06T05:23:37.408Z,1.10
2023-03-06T05:26:40.761Z,2.00
2023-03-06T05:29:44.194Z,2.08
2023-03-06T05:32:47.916Z,1.08
2023-03-06T05:35:51.231Z,2.57
2023-03-06T05:38:54.749Z,1.52
2023-03-06T05:41:58.942Z,1.98
2023-03-06T05:45:04.515Z,2.20
2023-03-06T05:48:08.713Z,0.82
2023-03-06T05:51:12.617Z,0.80
2023-03-06T05:54:16.696Z,0.77
2023-03-06T05:57:22.106Z,0.75
2023-03-06T06:00:26.370Z,1.17
2023-03-06T06:03:30.106Z,1.67
2023-03-06T06:06:33.422Z,1.80
2023-03-06T06:09:36.620Z,1.17
2023-03-06T06:12:40.831Z,1.60
2023-03-06T06:15:44.644Z,1.50
2023-03-06T06:18:48.374Z,1.17
2023-03-06T06:21:54.500Z,0.60
2023-03-06T06:24:58.614Z,0.90
2023-03-06T06:28:02.413Z,1.02
2023-03-06T06:31:11.819Z,1.92
2023-03-06T06:34:15.760Z,2.22
2023-03-06T06:37:19.842Z,2.57
2023-03-06T06:40:24.834Z,1.20
2023-03-06T06:43:29.278Z,1.77
2023-03-06T06:47:20.391Z,1.38
2023-03-06T06:49:58.164Z,1.70
2023-03-06T06:53:01.301Z,0.87
2023-03-06T06:56:05.358Z,1.40
2023-03-06T06:59:16.539Z,1.02
2023-03-06T07:02:21.494Z,1.33
2023-03-06T07:05:25.211Z,4.47
2023-03-06T07:08:29.837Z,2.27
2023-03-06T07:11:33.162Z,4.90
2023-03-06T07:14:37.628Z,2.80
2023-03-06T07:17:41.500Z,1.50
2023-03-06T07:20:44.871Z,6.45
2023-03-06T07:23:48.140Z,2.57
2023-03-06T07:26:53.221Z,1.90
2023-03-06T07:29:56.945Z,2.35
2023-03-06T07:33:00.823Z,3.70
2023-03-06T07:36:04.152Z,3.72
2023-03-06T07:39:08.933Z,2.17
2023-03-06T07:42:14.824Z,3.35
2023-03-06T07:45:29.057Z,5.18
2023-03-06T07:48:32.774Z,3.72
2023-03-06T07:51:36.840Z,6.93
2023-03-06T07:54:40.460Z,3.00
2023-03-06T07:57:43.929Z,5.03
2023-03-06T08:00:47.078Z,3.05
2023-03-06T08:03:51.876Z,1.30
2023-03-06T08:06:58.184Z,1.70
2023-03-06T08:10:02.053Z,2.37
2023-03-06T08:13:05.670Z,4.78
2023-03-06T08:16:11.143Z,12.18
2023-03-06T08:19:14.919Z,6.25
2023-03-06T08:22:19.027Z,1.80
2023-03-06T08:25:22.378Z,3.33
2023-03-06T08:28:27.379Z,3.70
2023-03-06T08:31:40.698Z,5.50
2023-03-06T08:34:46.376Z,3.75
2023-03-06T08:37:50.122Z,1.73
2023-03-06T08:40:53.365Z,1.53
2023-03-06T08:43:56.379Z,1.13
2023-03-06T08:47:00.330Z,1.52
2023-03-06T08:50:03.521Z,5.47
2023-03-06T08:53:07.028Z,1.23
2023-03-06T08:56:34.638Z,1.30
2023-03-06T08:59:38.164Z,1.50
2023-03-06T09:02:42.020Z,5.38
2023-03-06T09:05:46.082Z,1.90
2023-03-06T09:08:51.208Z,2.45
2023-03-06T09:11:55.567Z,2.27
2023-03-06T09:14:59.416Z,1.55
2023-03-06T09:18:03.666Z,0.90
2023-03-06T09:21:09.304Z,1.73
2023-03-06T09:24:13.332Z,1.98
2023-03-06T09:27:17.217Z,2.50
2023-03-06T09:30:21.292Z,4.75
2023-03-06T09:33:25.125Z,5.15
2023-03-06T09:36:28.518Z,5.40
2023-03-06T09:39:31.732Z,3.35
2023-03-06T09:42:36.109Z,2.80
2023-03-06T09:45:40.072Z,1.77
2023-03-06T09:48:57.882Z,2.92
2023-03-06T09:52:24.846Z,3.03
2023-03-06T09:55:31.980Z,3.75
2023-03-06T09:58:42.304Z,4.03
2023-03-06T10:02:02.577Z,4.00
2023-03-06T10:05:11.247Z,2.40
2023-03-06T10:08:44.076Z,2.75
2023-03-06T10:11:57.775Z,2.95
2023-03-06T10:15:09.835Z,4.13
2023-03-06T10:18:14.330Z,3.60
2023-03-06T10:21:33.208Z,4.60
2023-03-06T10:24:56.122Z,4.40
2023-03-06T10:28:12.422Z,4.43
2023-03-06T10:31:26.139Z,3.87
2023-03-06T10:34:33.674Z,3.58
2023-03-06T10:37:37.315Z,4.82
2023-03-06T10:40:57.981Z,4.32
2023-03-06T10:44:02.383Z,3.60
2023-03-06T10:47:31.125Z,3.70
2023-03-06T10:50:35.082Z,5.30
2023-03-06T10:53:59.718Z,4.78
2023-03-06T10:57:26.634Z,5.32
2023-03-06T11:00:39.529Z,7.32
2023-03-06T11:03:42.687Z,3.70
2023-03-06T11:06:46.883Z,2.05
2023-03-06T11:09:59.134Z,2.08
2023-03-06T11:13:23.487Z,3.00
2023-03-06T11:16:31.370Z,2.45
2023-03-06T11:19:35.633Z,2.30
2023-03-06T11:22:41.358Z,3.10
2023-03-06T11:25:51.294Z,3.92
2023-03-06T11:29:00.936Z,3.58
2023-03-06T11:32:12.784Z,3.80
2023-03-06T11:36:01.387Z,4.73
2023-03-06T11:39:15.531Z,6.47
2023-03-06T11:42:35.346Z,7.07
2023-03-06T11:45:48.832Z,6.28
2023-03-06T11:49:06.164Z,7.43
2023-03-06T11:52:19.481Z,6.30
2023-03-06T11:55:49.929Z,6.15
2023-03-06T11:59:15.264Z,6.32
2023-03-06T12:02:48.553Z,7.05
2023-03-06T12:06:04.778Z,7.55
2023-03-06T12:09:13.616Z,6.90
2023-03-06T12:12:42.097Z,6.10
2023-03-06T12:15:48.710Z,5.45
2023-03-06T12:19:23.553Z,5.88
2023-03-06T12:23:02.448Z,5.70
2023-03-06T12:26:20.087Z,5.87
2023-03-06T12:29:50.952Z,6.20
2023-03-06T12:33:03.388Z,8.95
2023-03-06T12:36:22.132Z,8.60
2023-03-06T12:40:11.824Z,7.38
2023-03-06T12:43:33.933Z,7.47
2023-03-06T12:46:47.785Z,8.02
2023-03-06T12:50:04.673Z,8.60
2023-03-06T12:53:16.395Z,8.32
2023-03-06T12:56:22.423Z,7.85
2023-03-06T12:59:45.105Z,7.00
2023-03-06T13:03:06.066Z,6.65
2023-03-06T13:06:44.944Z,6.75
2023-03-06T13:09:57.273Z,5.70
2023-03-06T13:13:22.457Z,6.93
2023-03-06T13:16:34.867Z,6.80
2023-03-06T13:19:38.696Z,10.98
2023-03-06T13:22:44.521Z,8.38
2023-03-06T13:25:50.317Z,7.78
2023-03-06T13:28:56.030Z,7.38
2023-03-06T13:32:02.919Z,5.50
2023-03-06T13:35:34.514Z,6.47
2023-03-06T13:38:54.899Z,6.32
2023-03-06T13:42:00.342Z,4.95
2023-03-06T13:45:16.535Z,7.10
2023-03-06T13:48:44.248Z,8.47
2023-03-06T13:51:54.568Z,6.72
2023-03-06T13:55:23.461Z,5.78
2023-03-06T13:58:56.899Z,5.80
2023-03-06T14:02:41.844Z,6.88
2023-03-06T14:05:51.124Z,6.27
2023-03-06T14:08:55.088Z,6.10
2023-03-06T14:12:07.415Z,5.05
2023-03-06T14:15:37.972Z,4.22
2023-03-06T14:18:47.019Z,5.13
2023-03-06T14:21:58.185Z,4.60
2023-03-06T14:25:06.291Z,5.25
2023-03-06T14:28:31.967Z,5.43
2023-03-06T14:31:41.738Z,5.00
2023-03-06T14:34:47.705Z,4.65
2023-03-06T14:37:54.766Z,4.10
2023-03-06T14:40:58.949Z,6.35
2023-03-06T14:44:27.085Z,12.65
2023-03-06T14:47:36.462Z,5.18
2023-03-06T14:50:41.089Z,4.60
2023-03-06T14:53:49.070Z,4.43
2023-03-06T14:56:57.412Z,5.38
2023-03-06T15:00:01.353Z,3.97
2023-03-06T15:03:13.541Z,4.53
2023-03-06T15:06:23.586Z,3.40
2023-03-06T15:09:36.576Z,3.37
2023-03-06T15:12:40.096Z,3.10
2023-03-06T15:15:43.202Z,3.35
2023-03-06T15:19:05.151Z,2.95
2023-03-06T15:22:21.666Z,3.00
2023-03-06T15:25:34.048Z,3.67
2023-03-06T15:28:40.104Z,3.50
2023-03-06T15:31:46.594Z,4.07
2023-03-06T15:35:25.238Z,3.53
2023-03-06T15:38:34.939Z,3.25
2023-03-06T15:41:39.614Z,4.23
2023-03-06T15:44:43.630Z,4.00
2023-03-06T15:47:49.263Z,11.88
2023-03-06T15:50:53.474Z,11.63
2023-03-06T15:54:09.775Z,20.73
2023-03-06T15:57:27.029Z,18.50
2023-03-06T16:00:36.110Z,7.78
2023-03-06T16:03:39.387Z,24.92
2023-03-06T16:06:45.364Z,31.27
2023-03-06T16:09:49.820Z,37.17
2023-03-06T16:13:00.400Z,37.27
2023-03-06T16:16:04.114Z,37.45
2023-03-06T16:19:25.267Z,39.17
2023-03-06T16:22:33.501Z,39.03
2023-03-06T16:25:42.881Z,39.33
2023-03-06T16:28:47.621Z,39.03
2023-03-06T16:31:51.101Z,37.55
2023-03-06T16:34:54.312Z,37.33
2023-03-06T16:37:59.367Z,36.72
2023-03-06T16:41:03.069Z,37.83
2023-03-06T16:44:08.440Z,39.03
2023-03-06T16:47:13.312Z,40.75
2023-03-06T16:50:23.316Z,35.28
2023-03-06T16:53:27.100Z,34.25
2023-03-06T16:56:30.933Z,34.13
2023-03-06T16:59:34.825Z,35.53
2023-03-06T17:02:41.226Z,36.20
2023-03-06T17:05:45.425Z,33.92
2023-03-06T17:08:50.787Z,32.05
2023-03-06T17:11:54.906Z,33.28
2023-03-06T17:14:59.113Z,31.37
2023-03-06T17:18:02.616Z,28.83
2023-03-06T17:21:08.206Z,30.20
2023-03-06T17:24:12.474Z,28.48
2023-03-06T17:27:15.590Z,28.52
2023-03-06T17:30:18.672Z,28.90
2023-03-06T17:33:22.447Z,30.80
2023-03-06T17:36:26.489Z,29.10
2023-03-06T17:39:34.993Z,29.27
2023-03-06T17:42:42.656Z,27.30
2023-03-06T17:45:47.977Z,27.40
2023-03-06T17:48:51.884Z,26.27
2023-03-06T17:51:58.524Z,27.50
2023-03-06T17:55:02.522Z,25.10
2023-03-06T17:58:05.630Z,26.63
2023-03-06T18:01:21.405Z,24.20
2023-03-06T18:04:24.980Z,22.55
2023-03-06T18:07:29.208Z,20.63
2023-03-06T18:10:32.905Z,17.67
2023-03-06T18:13:39.487Z,14.88
2023-03-06T18:16:43.295Z,13.10
2023-03-06T18:19:47.152Z,13.10
2023-03-06T18:22:50.973Z,12.98
2023-03-06T18:26:06.143Z,12.75
2023-03-06T18:29:11.263Z,12.38
2023-03-06T18:32:15.550Z,12.43
2023-03-06T18:35:20.094Z,12.20
2023-03-06T18:38:24.314Z,12.85
2023-03-06T18:41:28.051Z,12.15
2023-03-06T18:44:31.446Z,13.85
2023-03-06T18:47:35.383Z,11.33
2023-03-06T18:50:38.857Z,12.15
2023-03-06T18:53:43.082Z,11.10
2023-03-06T18:56:47.206Z,12.20
2023-03-06T18:59:50.686Z,11.60
2023-03-06T19:02:54.369Z,11.13
2023-03-06T19:05:59.685Z,10.77
2023-03-06T19:09:03.478Z,8.65
2023-03-06T19:12:07.707Z,10.93
2023-03-06T19:15:11.416Z,10.52
2023-03-06T19:18:18.031Z,10.40
2023-03-06T19:21:23.623Z,10.02
2023-03-06T19:24:27.569Z,11.80
2023-03-06T19:27:32.127Z,10.48
2023-03-06T19:30:36.326Z,11.40
2023-03-06T19:33:41.169Z,10.07
2023-03-06T19:36:45.455Z,9.35
2023-03-06T19:39:49.194Z,9.90
2023-03-06T19:42:52.982Z,9.40
2023-03-06T19:45:57.281Z,10.25
2023-03-06T19:49:06.244Z,9.27
2023-03-06T19:52:09.506Z,8.85
2023-03-06T19:55:13.597Z,8.80
2023-03-06T19:58:16.989Z,9.43
2023-03-06T20:01:23.379Z,9.40
2023-03-06T20:04:27.214Z,8.63
2023-03-06T20:07:30.607Z,4.60
2023-03-06T20:10:38.833Z,3.85
2023-03-06T20:13:47.186Z,4.25
2023-03-06T20:16:50.797Z,3.75
2023-03-06T20:19:55.100Z,3.97
2023-03-06T20:23:03.028Z,4.00
2023-03-06T20:26:12.532Z,4.20
2023-03-06T20:29:16.019Z,4.25
2023-03-06T20:32:20.033Z,4.28
2023-03-06T20:35:23.638Z,4.33
2023-03-06T20:38:27.898Z,4.28
2023-03-06T20:41:32.763Z,4.35
2023-03-06T20:44:36.835Z,5.20
2023-03-06T20:47:39.881Z,5.25
2023-03-06T20:50:42.929Z,5.10
2023-03-06T20:53:50.756Z,4.45
2023-03-06T20:56:53.869Z,4.10
2023-03-06T20:59:57.973Z,3.67
2023-03-06T21:03:01.009Z,3.33
2023-03-06T21:06:04.341Z,3.07
2023-03-06T21:09:07.999Z,3.60
2023-03-06T21:12:11.556Z,3.20
2023-03-06T21:15:15.308Z,3.00
2023-03-06T21:18:19.429Z,3.00
2023-03-06T21:21:25.938Z,3.47
2023-03-06T21:24:29.206Z,3.80
2023-03-06T21:27:32.952Z,4.03
2023-03-06T21:30:35.956Z,3.10
2023-03-06T21:33:40.402Z,2.97
2023-03-06T21:36:44.102Z,3.10
2023-03-06T21:39:47.897Z,4.00
2023-03-06T21:42:51.546Z,4.50
2023-03-06T21:45:58.742Z,3.78
2023-03-06T21:49:04.671Z,4.00
2023-03-06T21:52:08.673Z,4.00
2023-03-06T21:55:12.446Z,3.80
2023-03-06T21:58:16.200Z,3.88
2023-03-06T22:01:23.085Z,4.70
2023-03-06T22:04:26.570Z,4.13
2023-03-06T22:07:29.783Z,3.57
2023-03-06T22:10:33.848Z,4.50
2023-03-06T22:13:38.809Z,4.22
2023-03-06T22:16:42.434Z,3.67
2023-03-06T22:19:46.198Z,4.05
2023-03-06T22:22:50.344Z,4.20
2023-03-06T22:25:53.824Z,4.85
2023-03-06T22:28:58.609Z,4.80
2023-03-06T22:32:02.032Z,5.75
2023-03-06T22:35:06.449Z,5.63
2023-03-06T22:38:10.209Z,5.70
2023-03-06T22:41:17.315Z,5.88
2023-03-06T22:44:20.615Z,6.45
2023-03-06T22:47:23.638Z,6.90
2023-03-06T22:50:26.844Z,6.88
2023-03-06T22:53:31.108Z,6.90
2023-03-06T22:56:34.992Z,7.90
2023-03-06T22:59:39.178Z,9.13
2023-03-06T23:02:42.938Z,8.82
2023-03-06T23:05:46.046Z,9.10
2023-03-06T23:08:55.063Z,7.60
2023-03-06T23:11:58.636Z,9.45
2023-03-06T23:15:20.403Z,8.35
2023-03-06T23:18:42.659Z,9.82
2023-03-06T23:22:04.963Z,8.82
2023-03-06T23:25:27.758Z,8.87
2023-03-06T23:28:31.264Z,7.43
2023-03-06T23:31:34.259Z,7.82
2023-03-06T23:34:37.246Z,7.40
2023-03-06T23:37:40.610Z,8.85
2023-03-06T23:40:44.469Z,8.13
2023-03-06T23:43:49.665Z,6.25
2023-03-06T23:46:53.677Z,6.13
2023-03-06T23:49:57.643Z,4.90
2023-03-06T23:53:00.710Z,5.57
2023-03-06T23:56:07.260Z,5.80
2023-03-06T23:59:11.881Z,4.82
